Aqualoyalty — A8ZC6 — position and weather

sailwx.info

Track history (hours):
 
Tides and Currents Weather Stations Pressure Air Temp Water Temp Dewpoint Dewpoint Depression Visibility Wind Speed Wind Dir Waves Ship Positions

Aqualoyalty

Last reported at 2018-Jan-20 04:50 UTC. Time now 2018-Jan-20 05:24 UTC.
Position N 01°15' E 103°35'.

Length 249 m; draft 12.4 m.

Type: Tanker. MMSI: 636015177.

Date/timePositionNaut miles runAvg speedWind from/ knotsBaromVisibWave heightAir tempDewpointWater temp
2018-Jan-20 04:50N 01°15' E 103°35'0 0.0
2018-Jan-20 04:26N 01°15' E 103°35'0 0.1
2018-Jan-20 03:56N 01°15' E 103°35'0 0.0
2018-Jan-20 03:29N 01°15' E 103°35'0 0.0
2018-Jan-20 02:50N 01°15' E 103°35'0 0.0
2018-Jan-20 01:50N 01°15' E 103°35'0 0.1
2018-Jan-20 01:29N 01°15' E 103°35'0 0.1
2018-Jan-20 00:56N 01°15' E 103°35'0 0.3
2018-Jan-20 00:26N 01°15' E 103°35'0 0.1
2018-Jan-19 23:56N 01°15' E 103°35'0 0.1
2018-Jan-19 23:29N 01°15' E 103°35'0 0.0
2018-Jan-19 22:56N 01°15' E 103°35'0 0.1
2018-Jan-19 22:26N 01°15' E 103°35'0 0.1
2018-Jan-19 21:56N 01°15' E 103°35'0 0.0
2018-Jan-19 21:29N 01°15' E 103°35'0 0.1
2018-Jan-19 20:50N 01°15' E 103°35'0 0.1
2018-Jan-19 20:23N 01°15' E 103°35'0 0.2
2018-Jan-19 19:56N 01°15' E 103°35'0 0.1
2018-Jan-19 19:23N 01°15' E 103°35'0 0.1
2018-Jan-19 18:53N 01°15' E 103°35'0 0.0
2018-Jan-19 18:23N 01°15' E 103°35'0 0.0
2018-Jan-19 17:56N 01°15' E 103°35'0 0.1
2018-Jan-19 17:26N 01°15' E 103°35'0 0.2
2018-Jan-19 16:56N 01°15' E 103°35'0 0.4
2018-Jan-19 16:26N 01°15' E 103°35'0 0.1
2018-Jan-19 15:53N 01°15' E 103°35'0 0.0
2018-Jan-19 15:29N 01°15' E 103°35'0 0.0
2018-Jan-19 14:56N 01°15' E 103°35'0 0.0
2018-Jan-19 14:29N 01°15' E 103°35'0 0.0
2018-Jan-19 13:56N 01°15' E 103°35'0 0.0
2018-Jan-19 13:29N 01°15' E 103°35'0 0.0
2018-Jan-19 12:59N 01°15' E 103°35'0 0.1
2018-Jan-19 12:29N 01°15' E 103°35'0 0.1
2018-Jan-19 11:47N 01°15' E 103°35'0 0.1
2018-Jan-19 11:26N 01°15' E 103°35'0 0.2
2018-Jan-19 10:59N 01°15' E 103°35'0 0.2
2018-Jan-19 10:29N 01°15' E 103°35'0 0.1
2018-Jan-19 07:08N 01°15' E 103°35'0 0.0
2018-Jan-19 06:56N 01°15' E 103°35'0 0.2
2018-Jan-19 06:23N 01°15' E 103°35'1 2.2
2018-Jan-19 06:00N 01°14' E 103°34'2 3.2
2018-Jan-19 05:31N 01°13' E 103°34'3 5.4
2018-Jan-19 05:00N 01°12' E 103°37'3 6.0
2018-Jan-19 04:30N 01°12' E 103°40'1 2.9
2018-Jan-19 03:59N 01°12' E 103°42'0 0.0
2018-Jan-19 03:29N 01°12' E 103°42'0 0.1
2018-Jan-19 02:59N 01°12' E 103°42'0 0.3
2018-Jan-19 02:29N 01°12' E 103°41'0 0.5
2018-Jan-19 01:59N 01°12' E 103°41'0 0.2
2018-Jan-19 01:29N 01°12' E 103°41'0 0.2
2018-Jan-19 00:47N 01°12' E 103°41'0 0.5
2018-Jan-19 00:30N 01°12' E 103°41'2 4.4
2018-Jan-18 23:58N 01°12' E 103°39'4 7.7
2018-Jan-18 23:30N 01°12' E 103°35'2 4.8
2018-Jan-18 23:00N 01°12' E 103°33'5 9.1
2018-Jan-18 22:30N 01°11' E 103°28'5 9.6
2018-Jan-18 21:59N 01°13' E 103°24'510.9
2018-Jan-18 21:29N 01°17' E 103°20'  
Track history (hours):
 
Tides and Currents Weather Stations Pressure Air Temp Water Temp Dewpoint Dewpoint Depression Visibility Wind Speed Wind Dir Waves Ship Positions

Aqualoyalty

Last reported at 2018-Jan-20 04:50 UTC. Time now 2018-Jan-20 05:24 UTC.
Position N 01°15' E 103°35'.

Length 249 m; draft 12.4 m.

Type: Tanker. MMSI: 636015177.

Date/timePositionNaut miles runAvg speedWind from/ knotsBaromVisibWave heightAir tempDewpointWater temp
2018-Jan-20 04:50N 01°15' E 103°35'0 0.0
2018-Jan-20 04:26N 01°15' E 103°35'0 0.1
2018-Jan-20 03:56N 01°15' E 103°35'0 0.0
2018-Jan-20 03:29N 01°15' E 103°35'0 0.0
2018-Jan-20 02:50N 01°15' E 103°35'0 0.0
2018-Jan-20 01:50N 01°15' E 103°35'0 0.1
2018-Jan-20 01:29N 01°15' E 103°35'0 0.1
2018-Jan-20 00:56N 01°15' E 103°35'0 0.3
2018-Jan-20 00:26N 01°15' E 103°35'0 0.1
2018-Jan-19 23:56N 01°15' E 103°35'0 0.1
2018-Jan-19 23:29N 01°15' E 103°35'0 0.0
2018-Jan-19 22:56N 01°15' E 103°35'0 0.1
2018-Jan-19 22:26N 01°15' E 103°35'0 0.1
2018-Jan-19 21:56N 01°15' E 103°35'0 0.0
2018-Jan-19 21:29N 01°15' E 103°35'0 0.1
2018-Jan-19 20:50N 01°15' E 103°35'0 0.1
2018-Jan-19 20:23N 01°15' E 103°35'0 0.2
2018-Jan-19 19:56N 01°15' E 103°35'0 0.1
2018-Jan-19 19:23N 01°15' E 103°35'0 0.1
2018-Jan-19 18:53N 01°15' E 103°35'0 0.0
2018-Jan-19 18:23N 01°15' E 103°35'0 0.0
2018-Jan-19 17:56N 01°15' E 103°35'0 0.1
2018-Jan-19 17:26N 01°15' E 103°35'0 0.2
2018-Jan-19 16:56N 01°15' E 103°35'0 0.4
2018-Jan-19 16:26N 01°15' E 103°35'0 0.1
2018-Jan-19 15:53N 01°15' E 103°35'0 0.0
2018-Jan-19 15:29N 01°15' E 103°35'0 0.0
2018-Jan-19 14:56N 01°15' E 103°35'0 0.0
2018-Jan-19 14:29N 01°15' E 103°35'0 0.0
2018-Jan-19 13:56N 01°15' E 103°35'0 0.0
2018-Jan-19 13:29N 01°15' E 103°35'0 0.0
2018-Jan-19 12:59N 01°15' E 103°35'0 0.1
2018-Jan-19 12:29N 01°15' E 103°35'0 0.1
2018-Jan-19 11:47N 01°15' E 103°35'0 0.1
2018-Jan-19 11:26N 01°15' E 103°35'0 0.2
2018-Jan-19 10:59N 01°15' E 103°35'0 0.2
2018-Jan-19 10:29N 01°15' E 103°35'0 0.1
2018-Jan-19 07:08N 01°15' E 103°35'0 0.0
2018-Jan-19 06:56N 01°15' E 103°35'0 0.2
2018-Jan-19 06:23N 01°15' E 103°35'1 2.2
2018-Jan-19 06:00N 01°14' E 103°34'2 3.2
2018-Jan-19 05:31N 01°13' E 103°34'3 5.4
2018-Jan-19 05:00N 01°12' E 103°37'3 6.0
2018-Jan-19 04:30N 01°12' E 103°40'1 2.9
2018-Jan-19 03:59N 01°12' E 103°42'0 0.0
2018-Jan-19 03:29N 01°12' E 103°42'0 0.1
2018-Jan-19 02:59N 01°12' E 103°42'0 0.3
2018-Jan-19 02:29N 01°12' E 103°41'0 0.5
2018-Jan-19 01:59N 01°12' E 103°41'0 0.2
2018-Jan-19 01:29N 01°12' E 103°41'0 0.2
2018-Jan-19 00:47N 01°12' E 103°41'0 0.5
2018-Jan-19 00:30N 01°12' E 103°41'2 4.4
2018-Jan-18 23:58N 01°12' E 103°39'4 7.7
2018-Jan-18 23:30N 01°12' E 103°35'2 4.8
2018-Jan-18 23:00N 01°12' E 103°33'5 9.1
2018-Jan-18 22:30N 01°11' E 103°28'5 9.6
2018-Jan-18 21:59N 01°13' E 103°24'510.9
2018-Jan-18 21:29N 01°17' E 103°20'  

Dump ship's entire track history